This is the latest recevied weather packets stored in our database for station/object OE7AOT-2. If no packets are shown the sender has not sent any weather packets the latest 1 day(s).
| Time | Temp. | Humidity | Pressure | Rain* | Wind** | Luminosity | Snow |
|---|---|---|---|---|---|---|---|
| 1778076753 | 48.33° C | 37% | 914.1 hPa | 0 mm | - | - | - |
| 1778076616 | 53.89° C | 33% | 914.2 hPa | 0 mm | - | - | - |
| 1778076479 | 55° C | 34% | 914.1 hPa | 0 mm | - | - | - |
| 1778076137 | 55.56° C | 35% | 914.1 hPa | 0 mm | - | - | - |
| 1778076000 | 54.44° C | 34% | 914.2 hPa | 0 mm | - | - | - |
| 1778075726 | 51.11° C | 39% | 914.4 hPa | 0 mm | - | - | - |
| 1778075521 | 45.56° C | 42% | 914.2 hPa | 0 mm | - | - | - |
| 1778075384 | 42.78° C | 44% | 914.2 hPa | 0 mm | - | - | - |
| 1778075247 | 38.89° C | 46% | 914.4 hPa | 0 mm | - | - | - |
| 1778075110 | 40° C | 45% | 914.3 hPa | 0 mm | - | - | - |
| 1778074905 | 46.11° C | 41% | 914.2 hPa | 0 mm | - | - | - |
| 1778074768 | 46.67° C | 40% | 914.3 hPa | 0 mm | - | - | - |
| 1778074632 | 46.67° C | 40% | 914.3 hPa | 0 mm | - | - | - |
| 1778074494 | 45° C | 42% | 914.3 hPa | 0 mm | - | - | - |
| 1778074426 | 43.33° C | 43% | 914.3 hPa | 0 mm | - | - | - |
| 1778074357 | 41.67° C | 44% | 914.4 hPa | 0 mm | - | - | - |
| 1778074289 | 40° C | 45% | 914.4 hPa | 0 mm | - | - | - |
| 1778074152 | 41.67° C | 43% | 914.3 hPa | 0 mm | - | - | - |
| 1778073810 | 49.44° C | 38% | 914.2 hPa | 0 mm | - | - | - |
| 1778073673 | 48.89° C | 40% | 914.3 hPa | 0 mm | - | - | - |
| 1778073536 | 47.78° C | 41% | 914.3 hPa | 0 mm | - | - | - |
| 1778073057 | 37.78° C | 48% | 914.5 hPa | 0 mm | - | - | - |
| 1778072920 | 38.89° C | 47% | 914.4 hPa | 0 mm | - | - | - |
| 1778072783 | 42.78° C | 43% | 914.4 hPa | 0 mm | - | - | - |
| 1778072578 | 43.89° C | 42% | 914.6 hPa | 0 mm | - | - | - |
* Rain latest hour (hover to see other rain measurements)
** Current wind speed in m/s (hover to see current wind gust speed)